METAR AND TAF INFORMATION
METAR FOR SVJM
ADDS - METARS form results

(1455 UTC 02 June 2020)
Data provider http://aviationweather.gov/metar/data/
 
METAR text: SVJM 021402Z AUTO 27002KT NCD 27/17 Q1015
Conditions at: SVJM (SAN JUAN LOS MOR, VE) observed 1402 UTC 02 June 2020
Temperature: 27.0°C (81°F)
Dewpoint: 17.0°C (63°F) [RH = 54%]
Pressure (altimeter): 29.97 inches Hg (1015.0 mb)
Winds: from the W (270 degrees) at 2 MPH (2 knots; 1.0 m/s)
Visibility: missing
Ceiling: at least 12,000 feet AGL
Clouds: sky clear below 12,000 feet AGL
Weather: no significant weather observed at this time

 AIRPORT MAP

 RUNWAY INFORMATION
Runway 06 Runway length 4990 ft Runway width 75 ft
Runway elevation 0 ft Runway displaced threshold 0 ft Runway heading 49
Runway 24 Runway length 4990 ft Runway width 75 ft
Runway elevation 0 ft Runway displaced threshold 0 ft Runway heading 229

 AIRPORT FREQUENCIES

 AIRPORT NEAR NAVIGATION AIDS